sensor_id;sensor_type;location;lat;lon;timestamp;P1;durP1;ratioP1;P2;durP2;ratioP2
53072;SDS011;38955;48.916;2.336;2023-07-29T00:01:28;4.07;;;2.92;;
53072;SDS011;38955;48.916;2.336;2023-07-29T00:03:30;5.45;;;2.70;;
53072;SDS011;38955;48.916;2.336;2023-07-29T00:05:35;4.53;;;2.78;;
53072;SDS011;38955;48.916;2.336;2023-07-29T00:07:38;5.53;;;2.83;;
53072;SDS011;38955;48.916;2.336;2023-07-29T00:09:40;6.95;;;2.85;;
53072;SDS011;38955;48.916;2.336;2023-07-29T00:11:42;3.80;;;2.70;;
53072;SDS011;38955;48.916;2.336;2023-07-29T00:13:44;5.65;;;3.53;;
53072;SDS011;38955;48.916;2.336;2023-07-29T00:15:46;6.68;;;2.78;;
53072;SDS011;38955;48.916;2.336;2023-07-29T00:17:48;4.85;;;2.95;;
53072;SDS011;38955;48.916;2.336;2023-07-29T00:19:50;5.00;;;2.58;;
53072;SDS011;38955;48.916;2.336;2023-07-29T00:21:53;5.88;;;2.17;;
53072;SDS011;38955;48.916;2.336;2023-07-29T00:23:58;2.78;;;2.45;;
53072;SDS011;38955;48.916;2.336;2023-07-29T00:26:02;4.18;;;2.50;;
53072;SDS011;38955;48.916;2.336;2023-07-29T00:28:04;4.00;;;2.47;;
53072;SDS011;38955;48.916;2.336;2023-07-29T00:30:07;6.00;;;2.60;;
53072;SDS011;38955;48.916;2.336;2023-07-29T00:32:09;4.80;;;2.30;;
53072;SDS011;38955;48.916;2.336;2023-07-29T00:34:14;2.95;;;2.28;;
53072;SDS011;38955;48.916;2.336;2023-07-29T00:36:20;2.35;;;2.15;;
53072;SDS011;38955;48.916;2.336;2023-07-29T00:38:24;3.72;;;2.00;;
53072;SDS011;38955;48.916;2.336;2023-07-29T00:40:27;3.63;;;2.50;;
53072;SDS011;38955;48.916;2.336;2023-07-29T00:42:30;5.53;;;2.50;;
53072;SDS011;38955;48.916;2.336;2023-07-29T00:44:32;3.63;;;2.70;;
53072;SDS011;38955;48.916;2.336;2023-07-29T00:46:34;4.55;;;2.80;;
53072;SDS011;38955;48.916;2.336;2023-07-29T00:48:38;3.65;;;2.15;;
53072;SDS011;38955;48.916;2.336;2023-07-29T00:50:40;3.60;;;2.10;;
53072;SDS011;38955;48.916;2.336;2023-07-29T00:52:42;2.75;;;1.92;;
53072;SDS011;38955;48.916;2.336;2023-07-29T00:54:46;2.70;;;1.77;;
53072;SDS011;38955;48.916;2.336;2023-07-29T00:56:48;3.85;;;1.88;;
53072;SDS011;38955;48.916;2.336;2023-07-29T00:58:50;2.38;;;1.60;;
53072;SDS011;38955;48.916;2.336;2023-07-29T01:00:58;4.38;;;1.90;;
53072;SDS011;38955;48.916;2.336;2023-07-29T01:03:00;1.85;;;1.50;;
53072;SDS011;38955;48.916;2.336;2023-07-29T01:05:02;1.98;;;1.50;;
53072;SDS011;38955;48.916;2.336;2023-07-29T01:07:07;9.10;;;1.92;;
53072;SDS011;38955;48.916;2.336;2023-07-29T01:09:17;1.95;;;1.27;;
53072;SDS011;38955;48.916;2.336;2023-07-29T01:11:38;1.85;;;1.40;;
53072;SDS011;38955;48.916;2.336;2023-07-29T01:13:48;1.75;;;1.30;;
53072;SDS011;38955;48.916;2.336;2023-07-29T01:15:55;5.57;;;1.52;;
53072;SDS011;38955;48.916;2.336;2023-07-29T01:18:02;2.05;;;1.10;;
53072;SDS011;38955;48.916;2.336;2023-07-29T01:20:07;2.95;;;1.15;;
53072;SDS011;38955;48.916;2.336;2023-07-29T01:22:12;2.10;;;1.15;;
53072;SDS011;38955;48.916;2.336;2023-07-29T01:24:17;1.52;;;1.10;;
53072;SDS011;38955;48.916;2.336;2023-07-29T01:26:22;4.50;;;1.30;;
53072;SDS011;38955;48.916;2.336;2023-07-29T01:28:24;1.98;;;1.25;;
53072;SDS011;38955;48.916;2.336;2023-07-29T01:30:28;6.07;;;1.30;;
53072;SDS011;38955;48.916;2.336;2023-07-29T01:32:35;5.93;;;1.45;;
53072;SDS011;38955;48.916;2.336;2023-07-29T01:34:42;5.68;;;1.23;;
53072;SDS011;38955;48.916;2.336;2023-07-29T01:36:49;2.55;;;1.33;;
53072;SDS011;38955;48.916;2.336;2023-07-29T01:38:53;2.55;;;1.17;;
53072;SDS011;38955;48.916;2.336;2023-07-29T01:40:58;6.10;;;1.33;;
53072;SDS011;38955;48.916;2.336;2023-07-29T01:43:03;3.72;;;1.10;;
53072;SDS011;38955;48.916;2.336;2023-07-29T01:45:05;2.08;;;1.30;;
53072;SDS011;38955;48.916;2.336;2023-07-29T01:47:07;2.25;;;1.05;;
53072;SDS011;38955;48.916;2.336;2023-07-29T01:49:10;5.72;;;1.33;;
53072;SDS011;38955;48.916;2.336;2023-07-29T01:51:12;1.60;;;1.10;;
53072;SDS011;38955;48.916;2.336;2023-07-29T01:53:14;2.78;;;1.08;;
53072;SDS011;38955;48.916;2.336;2023-07-29T01:55:17;3.80;;;1.10;;
53072;SDS011;38955;48.916;2.336;2023-07-29T01:57:20;2.53;;;1.10;;
53072;SDS011;38955;48.916;2.336;2023-07-29T01:59:22;2.40;;;1.10;;
53072;SDS011;38955;48.916;2.336;2023-07-29T02:01:24;2.22;;;1.17;;
53072;SDS011;38955;48.916;2.336;2023-07-29T02:03:26;2.47;;;1.20;;
53072;SDS011;38955;48.916;2.336;2023-07-29T02:05:29;2.10;;;1.00;;
53072;SDS011;38955;48.916;2.336;2023-07-29T02:07:32;6.45;;;1.60;;
53072;SDS011;38955;48.916;2.336;2023-07-29T02:09:34;4.68;;;1.02;;
53072;SDS011;38955;48.916;2.336;2023-07-29T02:11:36;1.45;;;0.90;;
53072;SDS011;38955;48.916;2.336;2023-07-29T02:13:40;1.90;;;1.20;;
53072;SDS011;38955;48.916;2.336;2023-07-29T02:15:42;4.50;;;1.10;;
53072;SDS011;38955;48.916;2.336;2023-07-29T02:17:44;4.82;;;1.02;;
53072;SDS011;38955;48.916;2.336;2023-07-29T02:19:46;1.05;;;0.90;;
53072;SDS011;38955;48.916;2.336;2023-07-29T02:21:48;2.88;;;0.98;;
53072;SDS011;38955;48.916;2.336;2023-07-29T02:23:50;1.10;;;1.00;;
53072;SDS011;38955;48.916;2.336;2023-07-29T02:25:53;1.30;;;1.15;;
53072;SDS011;38955;48.916;2.336;2023-07-29T02:27:55;2.05;;;1.00;;
53072;SDS011;38955;48.916;2.336;2023-07-29T02:29:58;0.90;;;0.77;;
53072;SDS011;38955;48.916;2.336;2023-07-29T02:32:01;1.13;;;1.02;;
53072;SDS011;38955;48.916;2.336;2023-07-29T02:34:03;1.45;;;0.80;;
53072;SDS011;38955;48.916;2.336;2023-07-29T02:36:05;2.40;;;1.10;;
53072;SDS011;38955;48.916;2.336;2023-07-29T02:38:07;2.42;;;0.93;;
53072;SDS011;38955;48.916;2.336;2023-07-29T02:40:10;1.67;;;1.10;;
53072;SDS011;38955;48.916;2.336;2023-07-29T02:42:12;2.72;;;1.00;;
53072;SDS011;38955;48.916;2.336;2023-07-29T02:44:14;2.55;;;1.00;;
53072;SDS011;38955;48.916;2.336;2023-07-29T02:46:18;3.50;;;1.00;;
53072;SDS011;38955;48.916;2.336;2023-07-29T02:48:20;3.35;;;1.23;;
53072;SDS011;38955;48.916;2.336;2023-07-29T02:50:22;1.30;;;1.00;;
53072;SDS011;38955;48.916;2.336;2023-07-29T02:52:24;3.05;;;1.05;;
53072;SDS011;38955;48.916;2.336;2023-07-29T02:54:26;1.00;;;0.90;;
53072;SDS011;38955;48.916;2.336;2023-07-29T02:56:28;1.35;;;0.80;;
53072;SDS011;38955;48.916;2.336;2023-07-29T02:58:32;2.03;;;1.00;;
53072;SDS011;38955;48.916;2.336;2023-07-29T03:00:34;1.58;;;0.82;;
53072;SDS011;38955;48.916;2.336;2023-07-29T03:02:38;5.20;;;1.23;;
53072;SDS011;38955;48.916;2.336;2023-07-29T03:04:40;2.80;;;1.02;;
53072;SDS011;38955;48.916;2.336;2023-07-29T03:06:42;2.63;;;1.00;;
53072;SDS011;38955;48.916;2.336;2023-07-29T03:08:44;1.92;;;0.98;;
53072;SDS011;38955;48.916;2.336;2023-07-29T03:10:46;1.23;;;1.00;;
53072;SDS011;38955;48.916;2.336;2023-07-29T03:12:48;2.45;;;1.00;;
53072;SDS011;38955;48.916;2.336;2023-07-29T03:14:51;1.10;;;0.80;;
53072;SDS011;38955;48.916;2.336;2023-07-29T03:16:53;2.03;;;0.80;;
53072;SDS011;38955;48.916;2.336;2023-07-29T03:18:56;2.22;;;1.00;;
53072;SDS011;38955;48.916;2.336;2023-07-29T03:20:59;0.90;;;0.87;;
53072;SDS011;38955;48.916;2.336;2023-07-29T03:23:01;3.10;;;0.77;;
53072;SDS011;38955;48.916;2.336;2023-07-29T03:25:04;2.83;;;0.90;;
53072;SDS011;38955;48.916;2.336;2023-07-29T03:27:07;1.33;;;1.00;;
53072;SDS011;38955;48.916;2.336;2023-07-29T03:29:11;3.15;;;1.08;;
53072;SDS011;38955;48.916;2.336;2023-07-29T03:31:13;1.40;;;1.30;;
53072;SDS011;38955;48.916;2.336;2023-07-29T03:33:15;2.67;;;0.90;;
53072;SDS011;38955;48.916;2.336;2023-07-29T03:35:19;2.65;;;0.85;;
53072;SDS011;38955;48.916;2.336;2023-07-29T03:37:21;3.20;;;1.00;;
53072;SDS011;38955;48.916;2.336;2023-07-29T03:39:23;3.28;;;0.88;;
53072;SDS011;38955;48.916;2.336;2023-07-29T03:41:25;2.58;;;1.10;;
53072;SDS011;38955;48.916;2.336;2023-07-29T03:43:27;3.05;;;0.90;;
53072;SDS011;38955;48.916;2.336;2023-07-29T03:45:29;2.42;;;1.10;;
53072;SDS011;38955;48.916;2.336;2023-07-29T03:47:31;2.13;;;1.02;;
53072;SDS011;38955;48.916;2.336;2023-07-29T03:49:33;2.80;;;1.35;;
53072;SDS011;38955;48.916;2.336;2023-07-29T03:51:37;1.40;;;1.13;;
53072;SDS011;38955;48.916;2.336;2023-07-29T03:53:39;5.25;;;1.08;;
53072;SDS011;38955;48.916;2.336;2023-07-29T03:55:41;1.23;;;1.08;;
53072;SDS011;38955;48.916;2.336;2023-07-29T03:57:43;2.83;;;1.20;;
53072;SDS011;38955;48.916;2.336;2023-07-29T03:59:45;1.77;;;1.00;;
53072;SDS011;38955;48.916;2.336;2023-07-29T04:01:47;2.03;;;1.10;;
53072;SDS011;38955;48.916;2.336;2023-07-29T04:03:49;2.45;;;1.35;;
53072;SDS011;38955;48.916;2.336;2023-07-29T04:05:53;1.27;;;1.02;;
53072;SDS011;38955;48.916;2.336;2023-07-29T04:07:57;2.78;;;1.40;;
53072;SDS011;38955;48.916;2.336;2023-07-29T04:09:59;4.72;;;1.20;;
53072;SDS011;38955;48.916;2.336;2023-07-29T04:12:02;1.60;;;1.15;;
53072;SDS011;38955;48.916;2.336;2023-07-29T04:14:04;2.97;;;1.75;;
53072;SDS011;38955;48.916;2.336;2023-07-29T04:16:09;2.90;;;2.58;;
53072;SDS011;38955;48.916;2.336;2023-07-29T04:18:11;1.80;;;1.48;;
53072;SDS011;38955;48.916;2.336;2023-07-29T04:20:13;2.00;;;1.40;;
53072;SDS011;38955;48.916;2.336;2023-07-29T04:22:15;3.30;;;1.40;;
53072;SDS011;38955;48.916;2.336;2023-07-29T04:24:18;1.30;;;1.20;;
53072;SDS011;38955;48.916;2.336;2023-07-29T04:26:21;3.53;;;1.38;;
53072;SDS011;38955;48.916;2.336;2023-07-29T04:28:23;3.90;;;1.60;;
53072;SDS011;38955;48.916;2.336;2023-07-29T04:30:26;1.38;;;1.10;;
53072;SDS011;38955;48.916;2.336;2023-07-29T04:32:28;2.83;;;1.35;;
53072;SDS011;38955;48.916;2.336;2023-07-29T04:34:30;1.65;;;1.30;;
53072;SDS011;38955;48.916;2.336;2023-07-29T04:36:33;3.70;;;1.58;;
53072;SDS011;38955;48.916;2.336;2023-07-29T04:38:36;1.30;;;1.20;;
53072;SDS011;38955;48.916;2.336;2023-07-29T04:40:40;3.58;;;1.40;;
53072;SDS011;38955;48.916;2.336;2023-07-29T04:42:42;4.30;;;1.40;;
53072;SDS011;38955;48.916;2.336;2023-07-29T04:44:44;1.90;;;1.60;;
53072;SDS011;38955;48.916;2.336;2023-07-29T04:46:46;1.33;;;1.23;;
53072;SDS011;38955;48.916;2.336;2023-07-29T04:48:48;1.65;;;1.40;;
53072;SDS011;38955;48.916;2.336;2023-07-29T04:50:50;1.83;;;1.35;;
53072;SDS011;38955;48.916;2.336;2023-07-29T04:52:52;1.75;;;1.30;;
53072;SDS011;38955;48.916;2.336;2023-07-29T04:54:54;7.03;;;1.70;;
53072;SDS011;38955;48.916;2.336;2023-07-29T04:56:58;2.97;;;1.20;;
53072;SDS011;38955;48.916;2.336;2023-07-29T04:59:00;3.60;;;1.48;;
53072;SDS011;38955;48.916;2.336;2023-07-29T05:01:02;1.90;;;1.27;;
53072;SDS011;38955;48.916;2.336;2023-07-29T05:03:04;1.42;;;1.20;;
53072;SDS011;38955;48.916;2.336;2023-07-29T05:05:07;1.50;;;1.10;;
53072;SDS011;38955;48.916;2.336;2023-07-29T05:07:10;1.42;;;1.33;;
53072;SDS011;38955;48.916;2.336;2023-07-29T05:09:12;3.63;;;1.38;;
53072;SDS011;38955;48.916;2.336;2023-07-29T05:11:15;1.17;;;0.70;;
53072;SDS011;38955;48.916;2.336;2023-07-29T05:13:18;4.53;;;1.20;;
53072;SDS011;38955;48.916;2.336;2023-07-29T05:15:21;2.25;;;1.30;;
53072;SDS011;38955;48.916;2.336;2023-07-29T05:17:23;4.00;;;1.30;;
53072;SDS011;38955;48.916;2.336;2023-07-29T05:19:25;1.38;;;1.25;;
53072;SDS011;38955;48.916;2.336;2023-07-29T05:21:27;1.98;;;1.40;;
53072;SDS011;38955;48.916;2.336;2023-07-29T05:23:30;4.07;;;1.23;;
53072;SDS011;38955;48.916;2.336;2023-07-29T05:25:32;2.17;;;1.20;;
53072;SDS011;38955;48.916;2.336;2023-07-29T05:27:38;2.17;;;1.23;;
53072;SDS011;38955;48.916;2.336;2023-07-29T05:29:41;1.40;;;1.10;;
53072;SDS011;38955;48.916;2.336;2023-07-29T05:31:43;1.27;;;1.13;;
53072;SDS011;38955;48.916;2.336;2023-07-29T05:33:45;1.60;;;1.02;;
53072;SDS011;38955;48.916;2.336;2023-07-29T05:35:48;1.20;;;1.08;;
53072;SDS011;38955;48.916;2.336;2023-07-29T05:37:50;2.83;;;1.30;;
53072;SDS011;38955;48.916;2.336;2023-07-29T05:39:52;2.25;;;1.20;;
53072;SDS011;38955;48.916;2.336;2023-07-29T05:41:54;2.33;;;1.13;;
53072;SDS011;38955;48.916;2.336;2023-07-29T05:43:56;3.40;;;1.27;;
53072;SDS011;38955;48.916;2.336;2023-07-29T05:46:00;4.22;;;1.23;;
53072;SDS011;38955;48.916;2.336;2023-07-29T05:48:02;1.85;;;1.10;;
53072;SDS011;38955;48.916;2.336;2023-07-29T05:50:04;1.10;;;1.00;;
53072;SDS011;38955;48.916;2.336;2023-07-29T05:52:07;2.40;;;1.10;;
53072;SDS011;38955;48.916;2.336;2023-07-29T05:54:09;1.40;;;0.93;;
53072;SDS011;38955;48.916;2.336;2023-07-29T05:56:11;1.52;;;1.02;;
53072;SDS011;38955;48.916;2.336;2023-07-29T05:58:13;3.50;;;0.90;;
53072;SDS011;38955;48.916;2.336;2023-07-29T06:00:17;3.78;;;1.23;;
53072;SDS011;38955;48.916;2.336;2023-07-29T06:02:21;1.83;;;1.23;;
53072;SDS011;38955;48.916;2.336;2023-07-29T06:04:23;1.00;;;0.85;;
53072;SDS011;38955;48.916;2.336;2023-07-29T06:06:24;1.98;;;1.20;;
53072;SDS011;38955;48.916;2.336;2023-07-29T06:08:27;1.60;;;1.02;;
53072;SDS011;38955;48.916;2.336;2023-07-29T06:10:30;1.42;;;1.00;;
53072;SDS011;38955;48.916;2.336;2023-07-29T06:12:32;0.90;;;0.90;;
53072;SDS011;38955;48.916;2.336;2023-07-29T06:14:34;1.33;;;1.08;;
53072;SDS011;38955;48.916;2.336;2023-07-29T06:16:36;1.23;;;1.00;;
53072;SDS011;38955;48.916;2.336;2023-07-29T06:18:40;1.88;;;1.20;;
53072;SDS011;38955;48.916;2.336;2023-07-29T06:20:42;1.70;;;1.13;;
53072;SDS011;38955;48.916;2.336;2023-07-29T06:22:44;2.15;;;1.13;;
53072;SDS011;38955;48.916;2.336;2023-07-29T06:24:46;2.15;;;1.38;;
53072;SDS011;38955;48.916;2.336;2023-07-29T06:26:49;2.05;;;1.10;;
53072;SDS011;38955;48.916;2.336;2023-07-29T06:28:51;2.38;;;1.00;;
53072;SDS011;38955;48.916;2.336;2023-07-29T06:30:53;1.25;;;0.93;;
53072;SDS011;38955;48.916;2.336;2023-07-29T06:32:55;1.27;;;1.10;;
53072;SDS011;38955;48.916;2.336;2023-07-29T06:34:59;1.20;;;0.93;;
53072;SDS011;38955;48.916;2.336;2023-07-29T06:37:01;3.42;;;1.33;;
53072;SDS011;38955;48.916;2.336;2023-07-29T06:39:03;1.10;;;1.00;;
53072;SDS011;38955;48.916;2.336;2023-07-29T06:41:05;1.65;;;1.20;;
53072;SDS011;38955;48.916;2.336;2023-07-29T06:43:07;1.17;;;1.05;;
53072;SDS011;38955;48.916;2.336;2023-07-29T06:45:09;1.35;;;0.80;;
53072;SDS011;38955;48.916;2.336;2023-07-29T06:47:11;2.90;;;0.88;;
53072;SDS011;38955;48.916;2.336;2023-07-29T06:49:13;4.95;;;0.80;;
53072;SDS011;38955;48.916;2.336;2023-07-29T06:51:17;2.05;;;0.80;;
53072;SDS011;38955;48.916;2.336;2023-07-29T06:53:19;0.85;;;0.80;;
53072;SDS011;38955;48.916;2.336;2023-07-29T06:55:21;3.15;;;0.90;;
53072;SDS011;38955;48.916;2.336;2023-07-29T06:57:23;2.90;;;0.70;;
53072;SDS011;38955;48.916;2.336;2023-07-29T06:59:25;0.90;;;0.73;;
53072;SDS011;38955;48.916;2.336;2023-07-29T07:01:27;2.60;;;0.88;;
53072;SDS011;38955;48.916;2.336;2023-07-29T07:03:29;1.50;;;0.70;;
53072;SDS011;38955;48.916;2.336;2023-07-29T07:05:31;1.08;;;0.63;;
53072;SDS011;38955;48.916;2.336;2023-07-29T07:07:35;0.60;;;0.60;;
53072;SDS011;38955;48.916;2.336;2023-07-29T07:09:37;2.17;;;0.90;;
53072;SDS011;38955;48.916;2.336;2023-07-29T07:11:39;2.95;;;0.70;;
53072;SDS011;38955;48.916;2.336;2023-07-29T07:13:41;0.90;;;0.50;;
53072;SDS011;38955;48.916;2.336;2023-07-29T07:15:43;2.15;;;0.60;;
53072;SDS011;38955;48.916;2.336;2023-07-29T07:17:46;1.38;;;0.70;;
53072;SDS011;38955;48.916;2.336;2023-07-29T07:19:48;1.75;;;0.80;;
53072;SDS011;38955;48.916;2.336;2023-07-29T07:21:51;0.60;;;0.50;;
53072;SDS011;38955;48.916;2.336;2023-07-29T07:23:54;2.15;;;0.70;;
53072;SDS011;38955;48.916;2.336;2023-07-29T07:25:56;0.70;;;0.68;;
53072;SDS011;38955;48.916;2.336;2023-07-29T07:27:58;2.03;;;0.85;;
53072;SDS011;38955;48.916;2.336;2023-07-29T07:30:00;1.48;;;0.70;;
53072;SDS011;38955;48.916;2.336;2023-07-29T07:32:03;1.83;;;0.90;;
53072;SDS011;38955;48.916;2.336;2023-07-29T07:34:05;4.30;;;0.60;;
53072;SDS011;38955;48.916;2.336;2023-07-29T07:36:07;1.48;;;0.50;;
53072;SDS011;38955;48.916;2.336;2023-07-29T07:38:09;0.85;;;0.55;;
53072;SDS011;38955;48.916;2.336;2023-07-29T07:40:13;1.45;;;0.70;;
53072;SDS011;38955;48.916;2.336;2023-07-29T07:42:15;1.75;;;0.80;;
53072;SDS011;38955;48.916;2.336;2023-07-29T07:44:18;0.82;;;0.55;;
53072;SDS011;38955;48.916;2.336;2023-07-29T07:46:21;2.03;;;0.82;;
53072;SDS011;38955;48.916;2.336;2023-07-29T07:48:23;2.25;;;0.82;;
53072;SDS011;38955;48.916;2.336;2023-07-29T07:50:25;0.75;;;0.63;;
53072;SDS011;38955;48.916;2.336;2023-07-29T07:52:29;1.83;;;0.60;;
53072;SDS011;38955;48.916;2.336;2023-07-29T07:54:32;1.88;;;0.70;;
53072;SDS011;38955;48.916;2.336;2023-07-29T07:56:35;3.85;;;1.00;;
53072;SDS011;38955;48.916;2.336;2023-07-29T07:58:38;3.63;;;0.80;;
53072;SDS011;38955;48.916;2.336;2023-07-29T08:00:40;1.17;;;0.60;;
53072;SDS011;38955;48.916;2.336;2023-07-29T08:02:43;1.75;;;0.75;;
53072;SDS011;38955;48.916;2.336;2023-07-29T08:04:45;2.70;;;0.68;;
53072;SDS011;38955;48.916;2.336;2023-07-29T08:06:47;1.05;;;0.85;;
53072;SDS011;38955;48.916;2.336;2023-07-29T08:08:49;2.42;;;0.60;;
53072;SDS011;38955;48.916;2.336;2023-07-29T08:10:52;0.75;;;0.73;;
53072;SDS011;38955;48.916;2.336;2023-07-29T08:12:56;8.15;;;0.73;;
53072;SDS011;38955;48.916;2.336;2023-07-29T08:14:58;2.70;;;0.80;;
53072;SDS011;38955;48.916;2.336;2023-07-29T08:17:00;1.20;;;1.02;;
53072;SDS011;38955;48.916;2.336;2023-07-29T08:19:03;0.52;;;0.52;;
53072;SDS011;38955;48.916;2.336;2023-07-29T08:21:05;1.17;;;0.70;;
53072;SDS011;38955;48.916;2.336;2023-07-29T08:23:07;1.27;;;0.68;;
53072;SDS011;38955;48.916;2.336;2023-07-29T08:25:09;2.15;;;0.70;;
53072;SDS011;38955;48.916;2.336;2023-07-29T08:27:11;3.03;;;0.73;;
53072;SDS011;38955;48.916;2.336;2023-07-29T08:29:15;1.20;;;0.70;;
53072;SDS011;38955;48.916;2.336;2023-07-29T08:31:17;3.15;;;0.70;;
53072;SDS011;38955;48.916;2.336;2023-07-29T08:33:19;1.17;;;0.60;;
53072;SDS011;38955;48.916;2.336;2023-07-29T08:35:21;2.13;;;0.60;;
53072;SDS011;38955;48.916;2.336;2023-07-29T08:37:23;1.90;;;0.80;;
53072;SDS011;38955;48.916;2.336;2023-07-29T08:39:25;1.98;;;0.88;;
53072;SDS011;38955;48.916;2.336;2023-07-29T08:41:31;2.72;;;0.65;;
53072;SDS011;38955;48.916;2.336;2023-07-29T08:43:39;2.80;;;0.90;;
53072;SDS011;38955;48.916;2.336;2023-07-29T08:45:46;1.05;;;0.80;;
53072;SDS011;38955;48.916;2.336;2023-07-29T08:47:48;2.60;;;0.70;;
53072;SDS011;38955;48.916;2.336;2023-07-29T08:49:52;0.70;;;0.70;;
53072;SDS011;38955;48.916;2.336;2023-07-29T08:51:56;0.70;;;0.70;;
53072;SDS011;38955;48.916;2.336;2023-07-29T08:53:59;3.55;;;0.63;;
53072;SDS011;38955;48.916;2.336;2023-07-29T08:56:02;2.00;;;0.90;;
53072;SDS011;38955;48.916;2.336;2023-07-29T08:58:06;2.60;;;0.70;;
53072;SDS011;38955;48.916;2.336;2023-07-29T09:00:09;3.67;;;0.77;;
53072;SDS011;38955;48.916;2.336;2023-07-29T09:02:13;1.60;;;0.90;;
53072;SDS011;38955;48.916;2.336;2023-07-29T09:04:16;1.30;;;0.85;;
53072;SDS011;38955;48.916;2.336;2023-07-29T09:06:19;1.55;;;0.77;;
53072;SDS011;38955;48.916;2.336;2023-07-29T09:08:24;1.73;;;0.90;;
53072;SDS011;38955;48.916;2.336;2023-07-29T09:10:27;3.63;;;0.80;;
53072;SDS011;38955;48.916;2.336;2023-07-29T09:12:29;2.13;;;0.70;;
53072;SDS011;38955;48.916;2.336;2023-07-29T09:14:31;0.93;;;0.60;;
53072;SDS011;38955;48.916;2.336;2023-07-29T09:16:33;1.45;;;0.95;;
53072;SDS011;38955;48.916;2.336;2023-07-29T09:18:38;0.85;;;0.65;;
53072;SDS011;38955;48.916;2.336;2023-07-29T09:20:40;1.35;;;0.68;;
53072;SDS011;38955;48.916;2.336;2023-07-29T09:22:43;2.22;;;0.90;;
53072;SDS011;38955;48.916;2.336;2023-07-29T09:24:45;1.17;;;0.70;;
53072;SDS011;38955;48.916;2.336;2023-07-29T09:26:51;0.88;;;0.73;;
53072;SDS011;38955;48.916;2.336;2023-07-29T09:28:56;1.30;;;0.77;;
53072;SDS011;38955;48.916;2.336;2023-07-29T09:30:58;1.30;;;0.85;;
53072;SDS011;38955;48.916;2.336;2023-07-29T09:33:01;0.68;;;0.68;;
53072;SDS011;38955;48.916;2.336;2023-07-29T09:35:05;2.42;;;0.82;;
53072;SDS011;38955;48.916;2.336;2023-07-29T09:37:15;1.52;;;0.82;;
53072;SDS011;38955;48.916;2.336;2023-07-29T09:39:18;2.75;;;0.93;;
53072;SDS011;38955;48.916;2.336;2023-07-29T09:41:21;0.95;;;0.82;;
53072;SDS011;38955;48.916;2.336;2023-07-29T09:43:29;1.65;;;1.00;;
53072;SDS011;38955;48.916;2.336;2023-07-29T09:45:33;1.92;;;0.80;;
53072;SDS011;38955;48.916;2.336;2023-07-29T09:47:36;1.20;;;0.93;;
53072;SDS011;38955;48.916;2.336;2023-07-29T09:49:38;0.75;;;0.75;;
53072;SDS011;38955;48.916;2.336;2023-07-29T09:51:42;0.82;;;0.70;;
53072;SDS011;38955;48.916;2.336;2023-07-29T09:53:45;3.28;;;1.15;;
53072;SDS011;38955;48.916;2.336;2023-07-29T09:57:56;1.85;;;0.93;;
53072;SDS011;38955;48.916;2.336;2023-07-29T10:00:03;1.38;;;0.85;;
53072;SDS011;38955;48.916;2.336;2023-07-29T10:02:13;1.58;;;0.98;;
53072;SDS011;38955;48.916;2.336;2023-07-29T10:04:17;2.13;;;1.02;;
53072;SDS011;38955;48.916;2.336;2023-07-29T10:06:19;2.85;;;1.10;;
53072;SDS011;38955;48.916;2.336;2023-07-29T10:08:24;0.77;;;0.77;;
53072;SDS011;38955;48.916;2.336;2023-07-29T10:10:27;1.63;;;0.90;;
53072;SDS011;38955;48.916;2.336;2023-07-29T10:12:30;1.80;;;0.90;;
53072;SDS011;38955;48.916;2.336;2023-07-29T10:14:33;2.83;;;0.93;;
53072;SDS011;38955;48.916;2.336;2023-07-29T10:16:36;1.65;;;1.10;;
53072;SDS011;38955;48.916;2.336;2023-07-29T10:18:39;4.10;;;1.30;;
53072;SDS011;38955;48.916;2.336;2023-07-29T10:20:43;3.08;;;0.98;;
53072;SDS011;38955;48.916;2.336;2023-07-29T10:22:46;2.60;;;1.00;;
53072;SDS011;38955;48.916;2.336;2023-07-29T10:24:51;1.77;;;1.00;;
53072;SDS011;38955;48.916;2.336;2023-07-29T10:26:56;2.63;;;1.27;;
53072;SDS011;38955;48.916;2.336;2023-07-29T10:29:00;2.70;;;1.17;;
53072;SDS011;38955;48.916;2.336;2023-07-29T10:31:06;2.08;;;1.30;;
53072;SDS011;38955;48.916;2.336;2023-07-29T10:33:09;2.58;;;1.20;;
53072;SDS011;38955;48.916;2.336;2023-07-29T10:35:12;2.10;;;1.08;;
53072;SDS011;38955;48.916;2.336;2023-07-29T10:37:15;1.40;;;1.30;;
53072;SDS011;38955;48.916;2.336;2023-07-29T10:39:18;3.70;;;1.27;;
53072;SDS011;38955;48.916;2.336;2023-07-29T10:41:21;1.25;;;1.15;;
53072;SDS011;38955;48.916;2.336;2023-07-29T10:43:24;2.75;;;1.30;;
53072;SDS011;38955;48.916;2.336;2023-07-29T10:45:29;1.67;;;1.35;;
53072;SDS011;38955;48.916;2.336;2023-07-29T10:47:38;1.30;;;1.20;;
53072;SDS011;38955;48.916;2.336;2023-07-29T10:49:40;2.10;;;1.35;;
53072;SDS011;38955;48.916;2.336;2023-07-29T10:51:42;1.75;;;1.30;;
53072;SDS011;38955;48.916;2.336;2023-07-29T10:53:47;1.50;;;0.95;;
53072;SDS011;38955;48.916;2.336;2023-07-29T10:55:53;1.45;;;1.30;;
53072;SDS011;38955;48.916;2.336;2023-07-29T10:58:11;3.33;;;1.42;;
53072;SDS011;38955;48.916;2.336;2023-07-29T11:00:15;2.05;;;1.38;;
53072;SDS011;38955;48.916;2.336;2023-07-29T11:02:21;4.18;;;1.58;;
53072;SDS011;38955;48.916;2.336;2023-07-29T11:04:29;2.25;;;1.30;;
53072;SDS011;38955;48.916;2.336;2023-07-29T11:06:32;2.97;;;1.65;;
53072;SDS011;38955;48.916;2.336;2023-07-29T11:09:39;4.93;;;1.77;;
53072;SDS011;38955;48.916;2.336;2023-07-29T11:11:45;3.20;;;1.90;;
53072;SDS011;38955;48.916;2.336;2023-07-29T11:13:48;2.60;;;1.50;;
53072;SDS011;38955;48.916;2.336;2023-07-29T11:15:50;3.05;;;1.50;;
53072;SDS011;38955;48.916;2.336;2023-07-29T11:17:55;4.30;;;1.60;;
53072;SDS011;38955;48.916;2.336;2023-07-29T11:19:58;1.58;;;1.27;;
53072;SDS011;38955;48.916;2.336;2023-07-29T11:22:02;4.22;;;1.40;;
53072;SDS011;38955;48.916;2.336;2023-07-29T11:24:04;2.15;;;1.20;;
53072;SDS011;38955;48.916;2.336;2023-07-29T11:26:06;3.03;;;1.63;;
53072;SDS011;38955;48.916;2.336;2023-07-29T11:28:13;2.67;;;1.80;;
53072;SDS011;38955;48.916;2.336;2023-07-29T11:30:18;1.73;;;1.38;;
53072;SDS011;38955;48.916;2.336;2023-07-29T11:32:20;3.05;;;1.70;;
53072;SDS011;38955;48.916;2.336;2023-07-29T11:34:30;1.83;;;1.42;;
53072;SDS011;38955;48.916;2.336;2023-07-29T11:36:33;2.38;;;1.10;;
53072;SDS011;38955;48.916;2.336;2023-07-29T11:38:35;4.85;;;1.40;;
53072;SDS011;38955;48.916;2.336;2023-07-29T11:40:39;1.55;;;1.08;;
53072;SDS011;38955;48.916;2.336;2023-07-29T11:42:41;2.38;;;1.70;;
53072;SDS011;38955;48.916;2.336;2023-07-29T11:44:44;2.03;;;1.30;;
53072;SDS011;38955;48.916;2.336;2023-07-29T11:46:47;1.50;;;1.30;;
53072;SDS011;38955;48.916;2.336;2023-07-29T11:48:50;2.92;;;1.30;;
53072;SDS011;38955;48.916;2.336;2023-07-29T11:50:53;1.98;;;1.17;;
53072;SDS011;38955;48.916;2.336;2023-07-29T11:52:56;1.75;;;1.30;;
53072;SDS011;38955;48.916;2.336;2023-07-29T11:55:00;2.13;;;1.42;;
53072;SDS011;38955;48.916;2.336;2023-07-29T11:57:03;1.42;;;1.30;;
53072;SDS011;38955;48.916;2.336;2023-07-29T11:59:07;2.13;;;1.40;;
53072;SDS011;38955;48.916;2.336;2023-07-29T12:01:09;4.80;;;1.42;;
53072;SDS011;38955;48.916;2.336;2023-07-29T12:03:13;2.92;;;1.88;;
53072;SDS011;38955;48.916;2.336;2023-07-29T12:05:17;1.50;;;1.20;;
53072;SDS011;38955;48.916;2.336;2023-07-29T12:07:22;2.65;;;1.40;;
53072;SDS011;38955;48.916;2.336;2023-07-29T12:09:29;1.70;;;1.00;;
53072;SDS011;38955;48.916;2.336;2023-07-29T12:11:32;2.35;;;1.02;;
53072;SDS011;38955;48.916;2.336;2023-07-29T12:13:35;3.83;;;1.30;;
53072;SDS011;38955;48.916;2.336;2023-07-29T12:15:38;5.18;;;1.92;;
53072;SDS011;38955;48.916;2.336;2023-07-29T12:17:41;1.80;;;1.20;;
53072;SDS011;38955;48.916;2.336;2023-07-29T12:19:45;3.13;;;1.65;;
53072;SDS011;38955;48.916;2.336;2023-07-29T12:21:47;5.03;;;1.23;;
53072;SDS011;38955;48.916;2.336;2023-07-29T12:23:50;1.95;;;1.08;;
53072;SDS011;38955;48.916;2.336;2023-07-29T12:25:57;2.17;;;1.30;;